sensor_id;sensor_type;location;lat;lon;timestamp;P1;durP1;ratioP1;P2;durP2;ratioP2
1296;SDS011;641;48.492;9.184;2023-05-19T00:01:26;10.83;;;3.03;;
1296;SDS011;641;48.492;9.184;2023-05-19T00:03:53;10.90;;;3.00;;
1296;SDS011;641;48.492;9.184;2023-05-19T00:06:25;13.17;;;3.73;;
1296;SDS011;641;48.492;9.184;2023-05-19T00:08:56;10.93;;;3.47;;
1296;SDS011;641;48.492;9.184;2023-05-19T00:11:24;12.30;;;3.43;;
1296;SDS011;641;48.492;9.184;2023-05-19T00:13:51;11.10;;;2.97;;
1296;SDS011;641;48.492;9.184;2023-05-19T00:16:21;9.17;;;2.93;;
1296;SDS011;641;48.492;9.184;2023-05-19T00:18:48;9.17;;;3.40;;
1296;SDS011;641;48.492;9.184;2023-05-19T00:21:14;12.77;;;3.40;;
1296;SDS011;641;48.492;9.184;2023-05-19T00:23:41;13.60;;;3.37;;
1296;SDS011;641;48.492;9.184;2023-05-19T00:26:07;10.37;;;3.57;;
1296;SDS011;641;48.492;9.184;2023-05-19T00:28:32;13.60;;;3.80;;
1296;SDS011;641;48.492;9.184;2023-05-19T00:30:58;11.13;;;3.70;;
1296;SDS011;641;48.492;9.184;2023-05-19T00:33:25;12.00;;;3.67;;
1296;SDS011;641;48.492;9.184;2023-05-19T00:35:50;12.40;;;3.70;;
1296;SDS011;641;48.492;9.184;2023-05-19T00:38:16;11.80;;;4.07;;
1296;SDS011;641;48.492;9.184;2023-05-19T00:40:41;12.63;;;3.73;;
1296;SDS011;641;48.492;9.184;2023-05-19T00:43:07;13.23;;;3.93;;
1296;SDS011;641;48.492;9.184;2023-05-19T00:45:33;10.13;;;3.53;;
1296;SDS011;641;48.492;9.184;2023-05-19T00:47:59;11.87;;;3.50;;
1296;SDS011;641;48.492;9.184;2023-05-19T00:50:24;10.37;;;4.03;;
1296;SDS011;641;48.492;9.184;2023-05-19T00:52:52;10.63;;;3.90;;
1296;SDS011;641;48.492;9.184;2023-05-19T00:55:19;12.13;;;3.50;;
1296;SDS011;641;48.492;9.184;2023-05-19T00:57:47;10.47;;;3.10;;
1296;SDS011;641;48.492;9.184;2023-05-19T01:00:13;12.47;;;3.10;;
1296;SDS011;641;48.492;9.184;2023-05-19T01:02:40;10.83;;;2.97;;
1296;SDS011;641;48.492;9.184;2023-05-19T01:05:07;10.90;;;2.80;;
1296;SDS011;641;48.492;9.184;2023-05-19T01:07:33;9.70;;;2.60;;
1296;SDS011;641;48.492;9.184;2023-05-19T01:09:58;13.57;;;3.03;;
1296;SDS011;641;48.492;9.184;2023-05-19T01:12:24;12.83;;;3.13;;
1296;SDS011;641;48.492;9.184;2023-05-19T01:14:50;9.00;;;2.50;;
1296;SDS011;641;48.492;9.184;2023-05-19T01:17:26;10.03;;;2.90;;
1296;SDS011;641;48.492;9.184;2023-05-19T01:20:18;11.70;;;3.33;;
1296;SDS011;641;48.492;9.184;2023-05-19T01:23:01;11.23;;;3.03;;
1296;SDS011;641;48.492;9.184;2023-05-19T01:25:58;13.73;;;2.87;;
1296;SDS011;641;48.492;9.184;2023-05-19T01:28:52;10.53;;;2.80;;
1296;SDS011;641;48.492;9.184;2023-05-19T01:31:25;9.20;;;2.70;;
1296;SDS011;641;48.492;9.184;2023-05-19T01:33:52;12.00;;;3.23;;
1296;SDS011;641;48.492;9.184;2023-05-19T01:36:19;10.13;;;2.90;;
1296;SDS011;641;48.492;9.184;2023-05-19T01:38:47;8.40;;;2.63;;
1296;SDS011;641;48.492;9.184;2023-05-19T01:41:19;11.10;;;2.93;;
1296;SDS011;641;48.492;9.184;2023-05-19T01:43:46;8.00;;;2.73;;
1296;SDS011;641;48.492;9.184;2023-05-19T01:46:13;8.63;;;2.93;;
1296;SDS011;641;48.492;9.184;2023-05-19T01:48:39;8.13;;;2.37;;
1296;SDS011;641;48.492;9.184;2023-05-19T01:51:07;8.33;;;2.67;;
1296;SDS011;641;48.492;9.184;2023-05-19T01:53:32;10.27;;;3.03;;
1296;SDS011;641;48.492;9.184;2023-05-19T01:55:58;8.60;;;2.80;;
1296;SDS011;641;48.492;9.184;2023-05-19T01:58:29;8.30;;;2.70;;
1296;SDS011;641;48.492;9.184;2023-05-19T02:06:35;10.53;;;3.10;;
1296;SDS011;641;48.492;9.184;2023-05-19T02:09:37;8.40;;;2.77;;
1296;SDS011;641;48.492;9.184;2023-05-19T02:17:41;8.03;;;2.67;;
1296;SDS011;641;48.492;9.184;2023-05-19T02:20:12;8.27;;;2.90;;
1296;SDS011;641;48.492;9.184;2023-05-19T02:22:38;8.23;;;2.97;;
1296;SDS011;641;48.492;9.184;2023-05-19T02:25:05;8.67;;;2.90;;
1296;SDS011;641;48.492;9.184;2023-05-19T02:27:31;8.73;;;3.10;;
1296;SDS011;641;48.492;9.184;2023-05-19T02:29:58;8.80;;;3.17;;
1296;SDS011;641;48.492;9.184;2023-05-19T02:32:23;8.70;;;3.13;;
1296;SDS011;641;48.492;9.184;2023-05-19T02:34:49;10.20;;;4.17;;
1296;SDS011;641;48.492;9.184;2023-05-19T02:37:14;8.03;;;2.30;;
1296;SDS011;641;48.492;9.184;2023-05-19T02:39:40;12.00;;;3.47;;
1296;SDS011;641;48.492;9.184;2023-05-19T02:42:06;9.43;;;3.00;;
1296;SDS011;641;48.492;9.184;2023-05-19T02:44:32;8.60;;;3.03;;
1296;SDS011;641;48.492;9.184;2023-05-19T02:46:58;10.20;;;3.60;;
1296;SDS011;641;48.492;9.184;2023-05-19T02:49:23;8.40;;;2.73;;
1296;SDS011;641;48.492;9.184;2023-05-19T02:51:49;10.03;;;3.23;;
1296;SDS011;641;48.492;9.184;2023-05-19T02:54:14;10.10;;;3.20;;
1296;SDS011;641;48.492;9.184;2023-05-19T02:56:40;10.73;;;3.50;;
1296;SDS011;641;48.492;9.184;2023-05-19T02:59:06;9.73;;;3.30;;
1296;SDS011;641;48.492;9.184;2023-05-19T03:01:31;10.03;;;3.40;;
1296;SDS011;641;48.492;9.184;2023-05-19T03:03:57;8.83;;;3.30;;
1296;SDS011;641;48.492;9.184;2023-05-19T03:06:23;10.63;;;3.80;;
1296;SDS011;641;48.492;9.184;2023-05-19T03:08:49;11.53;;;3.53;;
1296;SDS011;641;48.492;9.184;2023-05-19T03:11:15;9.23;;;2.93;;
1296;SDS011;641;48.492;9.184;2023-05-19T03:13:41;10.20;;;3.60;;
1296;SDS011;641;48.492;9.184;2023-05-19T03:16:06;10.73;;;3.43;;
1296;SDS011;641;48.492;9.184;2023-05-19T03:18:35;9.63;;;3.33;;
1296;SDS011;641;48.492;9.184;2023-05-19T03:21:01;10.07;;;3.10;;
1296;SDS011;641;48.492;9.184;2023-05-19T03:23:26;10.03;;;3.37;;
1296;SDS011;641;48.492;9.184;2023-05-19T03:25:52;11.70;;;3.50;;
1296;SDS011;641;48.492;9.184;2023-05-19T03:28:20;9.60;;;3.40;;
1296;SDS011;641;48.492;9.184;2023-05-19T03:30:51;8.87;;;3.07;;
1296;SDS011;641;48.492;9.184;2023-05-19T03:33:16;9.77;;;3.47;;
1296;SDS011;641;48.492;9.184;2023-05-19T03:35:42;9.20;;;3.30;;
1296;SDS011;641;48.492;9.184;2023-05-19T03:38:10;13.47;;;3.27;;
1296;SDS011;641;48.492;9.184;2023-05-19T03:40:36;10.47;;;3.60;;
1296;SDS011;641;48.492;9.184;2023-05-19T03:43:02;13.03;;;3.40;;
1296;SDS011;641;48.492;9.184;2023-05-19T03:45:27;9.37;;;4.03;;
1296;SDS011;641;48.492;9.184;2023-05-19T03:47:53;10.53;;;3.87;;
1296;SDS011;641;48.492;9.184;2023-05-19T03:50:19;9.37;;;3.37;;
1296;SDS011;641;48.492;9.184;2023-05-19T03:52:45;9.87;;;2.80;;
1296;SDS011;641;48.492;9.184;2023-05-19T03:55:12;10.20;;;3.13;;
1296;SDS011;641;48.492;9.184;2023-05-19T03:57:40;10.13;;;3.17;;
1296;SDS011;641;48.492;9.184;2023-05-19T04:00:08;9.43;;;3.43;;
1296;SDS011;641;48.492;9.184;2023-05-19T04:02:37;10.70;;;3.20;;
1296;SDS011;641;48.492;9.184;2023-05-19T04:05:03;9.53;;;3.70;;
1296;SDS011;641;48.492;9.184;2023-05-19T04:07:29;9.27;;;3.50;;
1296;SDS011;641;48.492;9.184;2023-05-19T04:09:55;9.43;;;3.27;;
1296;SDS011;641;48.492;9.184;2023-05-19T04:12:21;9.37;;;3.03;;
1296;SDS011;641;48.492;9.184;2023-05-19T04:14:46;10.27;;;3.43;;
1296;SDS011;641;48.492;9.184;2023-05-19T04:17:12;11.80;;;3.93;;
1296;SDS011;641;48.492;9.184;2023-05-19T04:19:38;8.90;;;3.47;;
1296;SDS011;641;48.492;9.184;2023-05-19T04:22:04;9.97;;;3.97;;
1296;SDS011;641;48.492;9.184;2023-05-19T04:24:29;9.00;;;3.23;;
1296;SDS011;641;48.492;9.184;2023-05-19T04:26:55;11.93;;;4.03;;
1296;SDS011;641;48.492;9.184;2023-05-19T04:29:21;10.90;;;3.73;;
1296;SDS011;641;48.492;9.184;2023-05-19T04:31:47;8.90;;;3.53;;
1296;SDS011;641;48.492;9.184;2023-05-19T04:34:13;9.27;;;3.23;;
1296;SDS011;641;48.492;9.184;2023-05-19T04:36:39;9.97;;;3.23;;
1296;SDS011;641;48.492;9.184;2023-05-19T04:39:04;10.07;;;4.33;;
1296;SDS011;641;48.492;9.184;2023-05-19T04:41:33;10.10;;;4.10;;
1296;SDS011;641;48.492;9.184;2023-05-19T04:43:59;13.10;;;4.50;;
1296;SDS011;641;48.492;9.184;2023-05-19T04:46:25;11.20;;;3.60;;
1296;SDS011;641;48.492;9.184;2023-05-19T04:48:51;11.90;;;4.70;;
1296;SDS011;641;48.492;9.184;2023-05-19T04:51:17;12.40;;;3.63;;
1296;SDS011;641;48.492;9.184;2023-05-19T04:53:43;10.37;;;3.53;;
1296;SDS011;641;48.492;9.184;2023-05-19T04:56:09;8.70;;;3.63;;
1296;SDS011;641;48.492;9.184;2023-05-19T04:58:39;11.53;;;3.87;;
1296;SDS011;641;48.492;9.184;2023-05-19T05:01:05;10.97;;;4.20;;
1296;SDS011;641;48.492;9.184;2023-05-19T05:03:31;15.20;;;5.00;;
1296;SDS011;641;48.492;9.184;2023-05-19T05:05:58;10.53;;;4.27;;
1296;SDS011;641;48.492;9.184;2023-05-19T05:08:24;14.90;;;4.30;;
1296;SDS011;641;48.492;9.184;2023-05-19T05:10:49;12.63;;;3.97;;
1296;SDS011;641;48.492;9.184;2023-05-19T05:13:20;15.13;;;4.70;;
1296;SDS011;641;48.492;9.184;2023-05-19T05:15:47;13.97;;;4.00;;
1296;SDS011;641;48.492;9.184;2023-05-19T05:18:14;17.10;;;4.03;;
1296;SDS011;641;48.492;9.184;2023-05-19T05:20:43;12.40;;;3.30;;
1296;SDS011;641;48.492;9.184;2023-05-19T05:23:10;11.70;;;3.53;;
1296;SDS011;641;48.492;9.184;2023-05-19T05:25:40;10.93;;;3.70;;
1296;SDS011;641;48.492;9.184;2023-05-19T05:28:06;13.00;;;4.00;;
1296;SDS011;641;48.492;9.184;2023-05-19T05:30:32;14.50;;;3.97;;
1296;SDS011;641;48.492;9.184;2023-05-19T05:32:58;12.80;;;3.83;;
1296;SDS011;641;48.492;9.184;2023-05-19T05:35:25;10.67;;;3.93;;
1296;SDS011;641;48.492;9.184;2023-05-19T05:37:51;15.67;;;3.87;;
1296;SDS011;641;48.492;9.184;2023-05-19T05:40:17;12.73;;;4.70;;
1296;SDS011;641;48.492;9.184;2023-05-19T05:42:43;14.10;;;4.07;;
1296;SDS011;641;48.492;9.184;2023-05-19T05:45:08;10.50;;;3.57;;
1296;SDS011;641;48.492;9.184;2023-05-19T05:47:34;11.53;;;3.97;;
1296;SDS011;641;48.492;9.184;2023-05-19T05:50:07;12.63;;;3.60;;
1296;SDS011;641;48.492;9.184;2023-05-19T05:52:33;16.57;;;4.60;;
1296;SDS011;641;48.492;9.184;2023-05-19T05:55:03;10.60;;;4.10;;
1296;SDS011;641;48.492;9.184;2023-05-19T05:57:30;12.97;;;4.37;;
1296;SDS011;641;48.492;9.184;2023-05-19T05:59:59;10.57;;;4.63;;
1296;SDS011;641;48.492;9.184;2023-05-19T06:02:25;13.67;;;4.27;;
1296;SDS011;641;48.492;9.184;2023-05-19T06:04:52;13.57;;;4.23;;
1296;SDS011;641;48.492;9.184;2023-05-19T06:07:18;16.87;;;4.43;;
1296;SDS011;641;48.492;9.184;2023-05-19T06:09:43;14.97;;;4.27;;
1296;SDS011;641;48.492;9.184;2023-05-19T06:12:09;16.30;;;4.27;;
1296;SDS011;641;48.492;9.184;2023-05-19T06:14:35;13.60;;;4.37;;
1296;SDS011;641;48.492;9.184;2023-05-19T06:17:01;13.47;;;4.23;;
1296;SDS011;641;48.492;9.184;2023-05-19T06:19:26;13.67;;;4.50;;
1296;SDS011;641;48.492;9.184;2023-05-19T06:21:52;17.80;;;6.13;;
1296;SDS011;641;48.492;9.184;2023-05-19T06:24:17;12.80;;;5.00;;
1296;SDS011;641;48.492;9.184;2023-05-19T06:26:43;11.67;;;4.90;;
1296;SDS011;641;48.492;9.184;2023-05-19T06:29:09;14.93;;;4.33;;
1296;SDS011;641;48.492;9.184;2023-05-19T06:31:35;14.60;;;4.47;;
1296;SDS011;641;48.492;9.184;2023-05-19T06:34:00;12.60;;;3.70;;
1296;SDS011;641;48.492;9.184;2023-05-19T06:36:26;13.57;;;4.20;;
1296;SDS011;641;48.492;9.184;2023-05-19T06:38:52;17.90;;;3.90;;
1296;SDS011;641;48.492;9.184;2023-05-19T06:41:17;14.40;;;4.63;;
1296;SDS011;641;48.492;9.184;2023-05-19T06:43:43;13.53;;;3.87;;
1296;SDS011;641;48.492;9.184;2023-05-19T06:46:08;13.60;;;4.20;;
1296;SDS011;641;48.492;9.184;2023-05-19T06:48:36;11.00;;;4.20;;
1296;SDS011;641;48.492;9.184;2023-05-19T06:51:02;10.37;;;3.90;;
1296;SDS011;641;48.492;9.184;2023-05-19T06:53:28;11.00;;;4.07;;
1296;SDS011;641;48.492;9.184;2023-05-19T06:55:54;12.50;;;3.80;;
1296;SDS011;641;48.492;9.184;2023-05-19T06:58:20;12.60;;;3.53;;
1296;SDS011;641;48.492;9.184;2023-05-19T07:00:45;13.03;;;4.40;;
1296;SDS011;641;48.492;9.184;2023-05-19T07:03:11;14.87;;;3.83;;
1296;SDS011;641;48.492;9.184;2023-05-19T07:05:36;10.03;;;3.33;;
1296;SDS011;641;48.492;9.184;2023-05-19T07:08:02;12.70;;;4.17;;
1296;SDS011;641;48.492;9.184;2023-05-19T07:10:28;11.93;;;4.10;;
1296;SDS011;641;48.492;9.184;2023-05-19T07:12:54;10.10;;;3.53;;
1296;SDS011;641;48.492;9.184;2023-05-19T07:15:20;17.80;;;4.07;;
1296;SDS011;641;48.492;9.184;2023-05-19T07:17:45;13.07;;;3.93;;
1296;SDS011;641;48.492;9.184;2023-05-19T07:20:11;11.30;;;4.20;;
1296;SDS011;641;48.492;9.184;2023-05-19T07:22:37;9.60;;;3.63;;
1296;SDS011;641;48.492;9.184;2023-05-19T07:25:04;12.30;;;3.57;;
1296;SDS011;641;48.492;9.184;2023-05-19T07:27:30;11.50;;;3.60;;
1296;SDS011;641;48.492;9.184;2023-05-19T07:29:57;13.80;;;4.07;;
1296;SDS011;641;48.492;9.184;2023-05-19T07:32:22;15.37;;;5.00;;
1296;SDS011;641;48.492;9.184;2023-05-19T07:34:48;13.43;;;4.57;;
1296;SDS011;641;48.492;9.184;2023-05-19T07:37:14;9.93;;;2.93;;
1296;SDS011;641;48.492;9.184;2023-05-19T07:39:40;14.20;;;4.00;;
1296;SDS011;641;48.492;9.184;2023-05-19T07:42:06;10.90;;;4.17;;
1296;SDS011;641;48.492;9.184;2023-05-19T07:44:31;8.60;;;3.20;;
1296;SDS011;641;48.492;9.184;2023-05-19T07:46:58;14.37;;;3.93;;
1296;SDS011;641;48.492;9.184;2023-05-19T07:49:24;11.67;;;4.50;;
1296;SDS011;641;48.492;9.184;2023-05-19T07:51:51;14.10;;;3.97;;
1296;SDS011;641;48.492;9.184;2023-05-19T07:54:17;10.13;;;3.60;;
1296;SDS011;641;48.492;9.184;2023-05-19T07:56:42;13.93;;;3.93;;
1296;SDS011;641;48.492;9.184;2023-05-19T07:59:08;13.93;;;3.80;;
1296;SDS011;641;48.492;9.184;2023-05-19T08:01:34;12.60;;;4.00;;
1296;SDS011;641;48.492;9.184;2023-05-19T08:03:59;9.93;;;4.10;;
1296;SDS011;641;48.492;9.184;2023-05-19T08:06:25;10.23;;;3.40;;
1296;SDS011;641;48.492;9.184;2023-05-19T08:08:50;14.00;;;3.40;;
1296;SDS011;641;48.492;9.184;2023-05-19T08:11:18;12.30;;;3.83;;
1296;SDS011;641;48.492;9.184;2023-05-19T08:13:43;11.23;;;3.73;;
1296;SDS011;641;48.492;9.184;2023-05-19T08:16:11;10.70;;;3.90;;
1296;SDS011;641;48.492;9.184;2023-05-19T08:18:37;12.70;;;3.97;;
1296;SDS011;641;48.492;9.184;2023-05-19T08:21:02;13.50;;;4.10;;
1296;SDS011;641;48.492;9.184;2023-05-19T08:34:11;11.07;;;4.20;;
1296;SDS011;641;48.492;9.184;2023-05-19T08:36:37;17.13;;;4.20;;
1296;SDS011;641;48.492;9.184;2023-05-19T08:39:02;13.00;;;4.43;;
1296;SDS011;641;48.492;9.184;2023-05-19T08:41:28;12.10;;;4.10;;
1296;SDS011;641;48.492;9.184;2023-05-19T08:43:54;11.73;;;3.87;;
1296;SDS011;641;48.492;9.184;2023-05-19T08:46:19;12.57;;;4.40;;
1296;SDS011;641;48.492;9.184;2023-05-19T08:48:48;10.53;;;4.60;;
1296;SDS011;641;48.492;9.184;2023-05-19T08:51:26;12.10;;;4.17;;
1296;SDS011;641;48.492;9.184;2023-05-19T08:54:11;11.60;;;4.23;;
1296;SDS011;641;48.492;9.184;2023-05-19T08:56:39;15.00;;;4.20;;
1296;SDS011;641;48.492;9.184;2023-05-19T08:59:10;13.33;;;4.33;;
1296;SDS011;641;48.492;9.184;2023-05-19T09:01:38;11.43;;;3.77;;
1296;SDS011;641;48.492;9.184;2023-05-19T09:04:04;10.33;;;3.67;;
1296;SDS011;641;48.492;9.184;2023-05-19T09:06:30;11.77;;;3.97;;
1296;SDS011;641;48.492;9.184;2023-05-19T09:08:58;10.37;;;4.30;;
1296;SDS011;641;48.492;9.184;2023-05-19T09:11:24;14.57;;;4.50;;
1296;SDS011;641;48.492;9.184;2023-05-19T09:13:50;9.00;;;3.70;;
1296;SDS011;641;48.492;9.184;2023-05-19T09:16:16;13.03;;;4.13;;
1296;SDS011;641;48.492;9.184;2023-05-19T09:18:54;15.43;;;4.33;;
1296;SDS011;641;48.492;9.184;2023-05-19T09:21:27;12.07;;;3.97;;
1296;SDS011;641;48.492;9.184;2023-05-19T09:23:57;12.60;;;3.70;;
1296;SDS011;641;48.492;9.184;2023-05-19T09:26:48;11.50;;;3.80;;
1296;SDS011;641;48.492;9.184;2023-05-19T09:29:16;12.10;;;4.20;;
1296;SDS011;641;48.492;9.184;2023-05-19T09:31:49;12.30;;;4.13;;
1296;SDS011;641;48.492;9.184;2023-05-19T09:34:16;13.40;;;4.00;;
1296;SDS011;641;48.492;9.184;2023-05-19T09:36:42;11.00;;;3.83;;
1296;SDS011;641;48.492;9.184;2023-05-19T09:39:18;13.33;;;4.33;;
1296;SDS011;641;48.492;9.184;2023-05-19T09:41:44;11.63;;;4.20;;
1296;SDS011;641;48.492;9.184;2023-05-19T09:46:52;11.63;;;3.93;;
1296;SDS011;641;48.492;9.184;2023-05-19T09:49:21;13.00;;;3.77;;
1296;SDS011;641;48.492;9.184;2023-05-19T09:51:55;9.70;;;3.87;;
1296;SDS011;641;48.492;9.184;2023-05-19T09:54:21;14.00;;;4.40;;
1296;SDS011;641;48.492;9.184;2023-05-19T09:57:06;11.60;;;3.50;;
1296;SDS011;641;48.492;9.184;2023-05-19T09:59:31;12.73;;;4.20;;
1296;SDS011;641;48.492;9.184;2023-05-19T10:01:58;11.80;;;3.30;;
1296;SDS011;641;48.492;9.184;2023-05-19T10:04:27;14.17;;;3.70;;
1296;SDS011;641;48.492;9.184;2023-05-19T10:06:54;15.80;;;4.50;;
1296;SDS011;641;48.492;9.184;2023-05-19T10:09:24;10.70;;;3.43;;
1296;SDS011;641;48.492;9.184;2023-05-19T10:11:51;14.97;;;4.27;;
1296;SDS011;641;48.492;9.184;2023-05-19T10:14:21;12.03;;;3.80;;
1296;SDS011;641;48.492;9.184;2023-05-19T10:16:52;11.67;;;4.07;;
1296;SDS011;641;48.492;9.184;2023-05-19T10:19:26;12.73;;;3.67;;
1296;SDS011;641;48.492;9.184;2023-05-19T10:21:53;10.50;;;4.27;;
1296;SDS011;641;48.492;9.184;2023-05-19T10:24:19;12.23;;;4.10;;
1296;SDS011;641;48.492;9.184;2023-05-19T10:26:47;10.93;;;5.03;;
1296;SDS011;641;48.492;9.184;2023-05-19T10:29:32;13.87;;;4.20;;
1296;SDS011;641;48.492;9.184;2023-05-19T10:32:03;12.63;;;4.10;;
1296;SDS011;641;48.492;9.184;2023-05-19T10:40:11;13.33;;;4.03;;
1296;SDS011;641;48.492;9.184;2023-05-19T10:45:33;12.23;;;3.83;;
1296;SDS011;641;48.492;9.184;2023-05-19T10:48:09;10.97;;;3.93;;
1296;SDS011;641;48.492;9.184;2023-05-19T10:50:36;11.27;;;4.27;;
1296;SDS011;641;48.492;9.184;2023-05-19T10:53:01;11.70;;;4.20;;
1296;SDS011;641;48.492;9.184;2023-05-19T10:55:43;11.30;;;3.53;;
1296;SDS011;641;48.492;9.184;2023-05-19T10:58:11;17.60;;;3.83;;
1296;SDS011;641;48.492;9.184;2023-05-19T11:00:36;11.57;;;3.50;;
1296;SDS011;641;48.492;9.184;2023-05-19T11:05:39;12.90;;;4.60;;
1296;SDS011;641;48.492;9.184;2023-05-19T11:08:05;11.07;;;3.03;;
1296;SDS011;641;48.492;9.184;2023-05-19T11:10:35;10.13;;;4.03;;
1296;SDS011;641;48.492;9.184;2023-05-19T11:13:01;13.43;;;4.10;;
1296;SDS011;641;48.492;9.184;2023-05-19T11:15:28;18.40;;;3.90;;
1296;SDS011;641;48.492;9.184;2023-05-19T11:17:59;14.17;;;3.83;;
1296;SDS011;641;48.492;9.184;2023-05-19T11:20:26;12.33;;;3.37;;
1296;SDS011;641;48.492;9.184;2023-05-19T11:25:40;11.77;;;3.83;;
1296;SDS011;641;48.492;9.184;2023-05-19T11:28:06;10.60;;;3.50;;
1296;SDS011;641;48.492;9.184;2023-05-19T11:30:32;11.40;;;3.30;;
1296;SDS011;641;48.492;9.184;2023-05-19T11:32:58;12.73;;;3.20;;
1296;SDS011;641;48.492;9.184;2023-05-19T11:35:24;13.00;;;3.63;;
1296;SDS011;641;48.492;9.184;2023-05-19T11:37:50;14.30;;;4.13;;
1296;SDS011;641;48.492;9.184;2023-05-19T11:40:18;9.13;;;3.10;;
1296;SDS011;641;48.492;9.184;2023-05-19T11:42:45;10.67;;;4.20;;
1296;SDS011;641;48.492;9.184;2023-05-19T11:45:11;10.80;;;3.27;;
1296;SDS011;641;48.492;9.184;2023-05-19T11:47:36;10.30;;;3.80;;
1296;SDS011;641;48.492;9.184;2023-05-19T11:50:02;10.90;;;3.60;;
1296;SDS011;641;48.492;9.184;2023-05-19T11:52:28;11.23;;;4.50;;
1296;SDS011;641;48.492;9.184;2023-05-19T11:54:55;9.77;;;3.77;;
1296;SDS011;641;48.492;9.184;2023-05-19T11:57:25;10.30;;;3.40;;
1296;SDS011;641;48.492;9.184;2023-05-19T11:59:51;11.10;;;3.20;;
1296;SDS011;641;48.492;9.184;2023-05-19T12:02:18;11.00;;;3.30;;
1296;SDS011;641;48.492;9.184;2023-05-19T12:04:46;12.20;;;3.53;;
1296;SDS011;641;48.492;9.184;2023-05-19T12:07:14;10.63;;;3.60;;
1296;SDS011;641;48.492;9.184;2023-05-19T12:09:45;9.50;;;3.30;;
1296;SDS011;641;48.492;9.184;2023-05-19T12:12:20;9.27;;;3.40;;
1296;SDS011;641;48.492;9.184;2023-05-19T12:14:47;9.33;;;3.67;;
1296;SDS011;641;48.492;9.184;2023-05-19T12:17:17;9.87;;;3.73;;
1296;SDS011;641;48.492;9.184;2023-05-19T12:19:44;11.70;;;3.33;;
1296;SDS011;641;48.492;9.184;2023-05-19T12:22:12;9.23;;;3.63;;
1296;SDS011;641;48.492;9.184;2023-05-19T12:24:38;8.10;;;3.00;;
1296;SDS011;641;48.492;9.184;2023-05-19T12:29:35;12.60;;;3.80;;
1296;SDS011;641;48.492;9.184;2023-05-19T12:32:02;10.87;;;3.77;;
1296;SDS011;641;48.492;9.184;2023-05-19T12:34:28;11.97;;;3.30;;
1296;SDS011;641;48.492;9.184;2023-05-19T12:36:54;10.50;;;3.07;;
1296;SDS011;641;48.492;9.184;2023-05-19T12:39:20;9.87;;;4.20;;
1296;SDS011;641;48.492;9.184;2023-05-19T12:41:46;10.87;;;4.03;;
1296;SDS011;641;48.492;9.184;2023-05-19T12:44:13;9.30;;;3.60;;
1296;SDS011;641;48.492;9.184;2023-05-19T12:46:39;11.23;;;4.20;;
1296;SDS011;641;48.492;9.184;2023-05-19T12:49:05;10.50;;;3.90;;
1296;SDS011;641;48.492;9.184;2023-05-19T12:51:30;9.47;;;3.80;;
1296;SDS011;641;48.492;9.184;2023-05-19T12:53:56;10.10;;;3.87;;
1296;SDS011;641;48.492;9.184;2023-05-19T12:56:23;9.57;;;4.03;;
1296;SDS011;641;48.492;9.184;2023-05-19T12:58:52;12.67;;;3.83;;
1296;SDS011;641;48.492;9.184;2023-05-19T13:01:18;12.43;;;4.43;;
1296;SDS011;641;48.492;9.184;2023-05-19T13:03:44;9.07;;;4.10;;
1296;SDS011;641;48.492;9.184;2023-05-19T13:06:09;11.00;;;3.47;;
1296;SDS011;641;48.492;9.184;2023-05-19T13:08:36;9.60;;;3.53;;
1296;SDS011;641;48.492;9.184;2023-05-19T13:11:05;13.23;;;3.70;;
1296;SDS011;641;48.492;9.184;2023-05-19T13:13:31;11.30;;;4.00;;
1296;SDS011;641;48.492;9.184;2023-05-19T13:15:57;11.77;;;4.03;;
1296;SDS011;641;48.492;9.184;2023-05-19T13:18:22;15.17;;;4.67;;
1296;SDS011;641;48.492;9.184;2023-05-19T13:20:48;9.47;;;4.10;;
1296;SDS011;641;48.492;9.184;2023-05-19T13:23:15;23.53;;;4.40;;
1296;SDS011;641;48.492;9.184;2023-05-19T13:25:41;11.70;;;4.10;;
1296;SDS011;641;48.492;9.184;2023-05-19T13:28:07;8.80;;;4.10;;
1296;SDS011;641;48.492;9.184;2023-05-19T13:30:33;13.13;;;4.47;;
1296;SDS011;641;48.492;9.184;2023-05-19T13:33:00;12.10;;;4.10;;
1296;SDS011;641;48.492;9.184;2023-05-19T13:35:26;15.30;;;4.87;;
1296;SDS011;641;48.492;9.184;2023-05-19T13:37:52;12.70;;;5.10;;
1296;SDS011;641;48.492;9.184;2023-05-19T13:40:17;11.23;;;4.90;;
1296;SDS011;641;48.492;9.184;2023-05-19T13:42:43;9.90;;;4.17;;
1296;SDS011;641;48.492;9.184;2023-05-19T13:45:09;11.93;;;4.30;;
1296;SDS011;641;48.492;9.184;2023-05-19T13:47:35;9.87;;;3.70;;
1296;SDS011;641;48.492;9.184;2023-05-19T13:50:01;12.53;;;4.33;;
1296;SDS011;641;48.492;9.184;2023-05-19T13:52:28;9.30;;;4.30;;
1296;SDS011;641;48.492;9.184;2023-05-19T13:54:54;12.30;;;4.73;;
1296;SDS011;641;48.492;9.184;2023-05-19T13:57:20;11.60;;;4.37;;
1296;SDS011;641;48.492;9.184;2023-05-19T13:59:50;10.00;;;3.80;;
1296;SDS011;641;48.492;9.184;2023-05-19T14:02:16;9.07;;;3.80;;
1296;SDS011;641;48.492;9.184;2023-05-19T14:04:41;11.77;;;4.53;;
1296;SDS011;641;48.492;9.184;2023-05-19T14:07:07;11.53;;;3.60;;
1296;SDS011;641;48.492;9.184;2023-05-19T14:09:34;11.33;;;4.17;;
1296;SDS011;641;48.492;9.184;2023-05-19T14:12:00;10.60;;;4.10;;
1296;SDS011;641;48.492;9.184;2023-05-19T14:14:26;11.40;;;3.97;;
1296;SDS011;641;48.492;9.184;2023-05-19T14:16:51;11.87;;;4.17;;
1296;SDS011;641;48.492;9.184;2023-05-19T14:19:17;10.20;;;4.47;;
1296;SDS011;641;48.492;9.184;2023-05-19T14:21:42;8.50;;;3.40;;
1296;SDS011;641;48.492;9.184;2023-05-19T14:24:08;12.00;;;4.63;;
1296;SDS011;641;48.492;9.184;2023-05-19T14:26:34;13.50;;;4.80;;
1296;SDS011;641;48.492;9.184;2023-05-19T14:28:59;12.13;;;4.70;;
1296;SDS011;641;48.492;9.184;2023-05-19T14:31:25;13.93;;;4.97;;
1296;SDS011;641;48.492;9.184;2023-05-19T14:33:51;10.23;;;4.53;;
1296;SDS011;641;48.492;9.184;2023-05-19T14:36:17;12.07;;;4.40;;
1296;SDS011;641;48.492;9.184;2023-05-19T14:38:42;11.43;;;5.17;;
1296;SDS011;641;48.492;9.184;2023-05-19T14:41:08;11.70;;;4.50;;
1296;SDS011;641;48.492;9.184;2023-05-19T14:43:34;11.23;;;4.80;;
1296;SDS011;641;48.492;9.184;2023-05-19T14:45:59;11.00;;;4.67;;
1296;SDS011;641;48.492;9.184;2023-05-19T14:48:25;16.30;;;6.00;;
1296;SDS011;641;48.492;9.184;2023-05-19T14:50:51;11.00;;;4.80;;
1296;SDS011;641;48.492;9.184;2023-05-19T14:53:17;13.27;;;5.13;;
1296;SDS011;641;48.492;9.184;2023-05-19T14:55:42;10.60;;;4.83;;
1296;SDS011;641;48.492;9.184;2023-05-19T14:58:08;18.10;;;4.70;;
1296;SDS011;641;48.492;9.184;2023-05-19T15:00:34;13.40;;;5.20;;
1296;SDS011;641;48.492;9.184;2023-05-19T15:03:00;13.00;;;4.80;;
1296;SDS011;641;48.492;9.184;2023-05-19T15:05:25;11.07;;;4.60;;
1296;SDS011;641;48.492;9.184;2023-05-19T15:07:51;11.20;;;4.50;;
1296;SDS011;641;48.492;9.184;2023-05-19T15:10:17;11.93;;;4.10;;
1296;SDS011;641;48.492;9.184;2023-05-19T15:12:45;13.00;;;4.20;;
1296;SDS011;641;48.492;9.184;2023-05-19T15:15:11;10.73;;;4.60;;
1296;SDS011;641;48.492;9.184;2023-05-19T15:17:38;15.53;;;4.97;;
1296;SDS011;641;48.492;9.184;2023-05-19T15:20:03;11.40;;;4.77;;
1296;SDS011;641;48.492;9.184;2023-05-19T15:22:29;14.37;;;4.93;;
1296;SDS011;641;48.492;9.184;2023-05-19T15:24:55;11.37;;;5.20;;
1296;SDS011;641;48.492;9.184;2023-05-19T15:27:21;11.83;;;5.07;;
1296;SDS011;641;48.492;9.184;2023-05-19T15:29:46;11.20;;;5.07;;
1296;SDS011;641;48.492;9.184;2023-05-19T15:32:12;9.00;;;4.47;;
1296;SDS011;641;48.492;9.184;2023-05-19T15:38:00;15.10;;;4.83;;
1296;SDS011;641;48.492;9.184;2023-05-19T15:40:29;14.17;;;5.20;;
1296;SDS011;641;48.492;9.184;2023-05-19T15:42:59;12.83;;;4.53;;
1296;SDS011;641;48.492;9.184;2023-05-19T15:45:24;15.43;;;5.10;;
1296;SDS011;641;48.492;9.184;2023-05-19T15:47:50;14.80;;;5.03;;
1296;SDS011;641;48.492;9.184;2023-05-19T15:50:15;12.43;;;4.70;;
1296;SDS011;641;48.492;9.184;2023-05-19T15:52:41;13.00;;;5.03;;
1296;SDS011;641;48.492;9.184;2023-05-19T15:55:07;15.20;;;5.40;;
1296;SDS011;641;48.492;9.184;2023-05-19T15:57:33;12.73;;;4.87;;
1296;SDS011;641;48.492;9.184;2023-05-19T15:59:58;14.63;;;5.47;;
1296;SDS011;641;48.492;9.184;2023-05-19T16:02:24;11.60;;;5.00;;